Strona główna
METAR-TAF:

METAR-TAF

Lotnisko :

Port lotniczy Deauville

Deauville, Francja

Szerokość geograficzna: 49-21-55N, Długość geograficzna: 000-09-16E, wysokość: 146 m

Aktualna obserwacja pogody

Raport powstał 23 minut temu, godzina 08:00 UTC
Wiatr 7 kt od północno-północny wschód, zmienny między północ i wschodnio-północny wschód
Temperatura 15°C
Wilgotność 72%
Ciśnienie 1032 hPa
Widzialność 10 km lub więcej
Brak chmur poniżej 1500 m i brak chmur cumulonimbus

METAR: LFRG 280800Z AUTO 03007KT 350V070 CAVOK 15/10 Q1032

czas: 10:23 (08:23 UTC)


TAF: brakujący

Obserwacja i prognoza pogody dla ponad 4000 lotnisk (raport METAR i TAF).

Dostępne stacje oznaczono żółtymi i czerwonymi punktami na mapie.

Najedź kursorem aby zobaczyć nazwę stacji.

Kliknij aby zobaczyć obserwacje i prognozy pogody.

Aby zmienić mapę: kliknij na zielony przycisk z czarnym krzyżykiem, aby powiększyć; na zielony przycisk z myślnikiem, aby pomniejszyć; na zielone strzałki, aby przejść do map sąsiednich.


METAR-TAF: